Terminal Aerodrome Forecast
Issued by NWS Twin Cities, MN

Home | Current Version | Previous Version | Graphics & Text | Print | Product List | Glossary On
Versions: 1 2 3 4 5 6 7 8 9 10 11 12 13 14 15 16 17
293
FTUS43 KMPX 152325
TAFEAU
TAF
KEAU 152325Z 1600/1624 30013G21KT P6SM OVC030
     FM160400 32009KT P6SM OVC020
     FM161000 VRB04KT P6SM BKN020
     FM161500 VRB03KT P6SM BKN040
     FM162000 12007KT P6SM BKN080=

USA.gov is the U.S. government's official web portal to all federal, state and local government web resources and services.